Nearby METAR Reports


KPVF - Placerville, California, USA
Distance from station: E 5mi, 14km
Updated: 08/14/2018 2:55pm
Clear
Clear
 Wind from SW
Wind: SW 6 mph , 9 km/h
Temperature: 86°F , 30°C
Dew Point: 36°F , 2°C
Humidity: 17%
Barometer: 29.97 inHg , 1014.9 hPa
Clouds: Clear
Visibility: 10 miles , 16 km
2018/08/14 21:55 KPVF 142155Z AUTO 23005KT 10SM CLR 30/02 A2997 RMK AO1
KAUN - Auburn, California, USA
Distance from station: NE 37mi, 14km
Updated: 08/14/2018 2:55pm
Few Clouds
Few Clouds
 Wind from WSW
Wind: WSW 5 mph , 7 km/h
Temperature: 88°F , 31°C
Dew Point: 39°F , 4°C
Humidity: 18%
Barometer: 29.91 inHg , 1012.9 hPa
Clouds: Few Clouds
Visibility: 10 miles , 16 km
Cloud details: Few Clouds 10000 ft
2018/08/14 21:55 KAUN 142155Z AUTO 24004KT 10SM FEW100 31/04 A2991 RMK AO1
 
KMHR - Mather, California, USA
Distance from station: NNW 30mi, 23km
Updated: 08/14/2018 2:50pm
Few Clouds
Few Clouds
 Wind from WSW
Wind: WSW 5 mph , 7 km/h
Temperature: 86°F , 30°C
Dew Point: 52°F , 11°C
Humidity: 31%
Barometer: 29.83 inHg , 1010.2 hPa
Clouds: Few Clouds
Visibility: 10 miles , 16 km
Cloud details: Few Clouds 15000 ft
2018/08/14 21:50 KMHR 142150Z 24004KT 10SM FEW150 30/11 A2983
KSAC - Sacramento, California, USA
Distance from station: WNW 45mi, 50km
Updated: 08/14/2018 2:53pm
Clear
Clear
 Wind from S
Wind: S 10 mph , 17 km/h
Temperature: 82°F , 28°C
Heat Index: 81°F , 27°C
Dew Point: 55°F , 13°C
Humidity: 40%
Barometer: 29.84 inHg , 1010.5 hPa
Clouds: Clear
Visibility: 10 miles , 16 km
2018/08/14 21:53 KSAC 142153Z 19009KT 10SM CLR 28/13 A2984 RMK AO2 SLP103 T02830133
 
KSMF - Sacramento Metro, California, USA
Distance from station: NNE 50mi, 51km
Updated: 08/14/2018 2:53pm
Clear
Clear
 Wind from S
Wind: S 8 mph , 13 km/h
Temperature: 84°F , 29°C
Heat Index: 83°F , 28°C
Dew Point: 57°F , 14°C
Humidity: 40%
Barometer: 29.82 inHg , 1009.8 hPa
Clouds: Clear
Visibility: 10 miles , 16 km
2018/08/14 21:53 KSMF 142153Z 18007KT 10SM CLR 29/14 A2982 RMK AO2 SLP098 T02940139
KBAB - Beale AFB - Marysville, California, USA
Distance from station: NW 21mi, 34km
Updated: 08/14/2018 2:58pm
Few Clouds
Few Clouds
 Wind from SSW
Wind: SSW 10 mph , 17 km/h
Temperature: 86°F , 30°C
Heat Index: 86°F , 30°C
Dew Point: 61°F , 16°C
Humidity: 43%
Barometer: 29.81 inHg , 1009.5 hPa
Clouds: Few Clouds
Visibility: 10 miles , 16 km
Cloud details: Few Clouds 17000 ft
Few Clouds 21000 ft
2018/08/14 21:58 KBAB 142158Z 20009KT 10SM FEW170 FEW210 30/16 A2981 RMK AO2A SLP097 T03030159 $
 
KOVE - Oroville, California, USA
Distance from station: ESE 80mi, 43km
Updated: 08/09/2018 12:53pm
NOT Current
Haze, Clear
Haze, Clear
 Wind from W
Wind: W 5 mph , 7 km/h
Temperature: 90°F , 32°C
Dew Point: 57°F , 14°C
Humidity: 33%
Barometer: 29.90 inHg , 1012.5 hPa
Summary: Haze
Clouds: Clear
Visibility: 5 miles , 8 km
2018/08/09 19:53 KOVE 091953Z AUTO 28004KT 5SM HZ CLR 32/14 A2990 RMK AO2 SLP126 T03220144 $
KRDD - Redding, California, USA
Distance from station: SSE 225mi, 44km
Updated: 08/14/2018 2:53pm
Smoke, Clear
Smoke, Clear
 Wind from varies
Wind: varies 3 mph , 6 km/h
Temperature: 97°F , 36°C
Dew Point: 43°F , 6°C
Humidity: 16%
Barometer: 29.79 inHg , 1008.8 hPa
Summary: Smoke
Clouds: Clear
Visibility: 5 miles , 8 km
2018/08/14 21:53 KRDD 142153Z VRB03KT 5SM FU CLR 36/06 A2979 RMK AO2 SLP080 T03610056 $
 
KTRK - Tahoe-Truckee, California, USA
Distance from station: NW 60mi, 49km
Updated: 08/14/2018 2:55pm
Overcast
Overcast
 Wind from W
Wind: W 8 mph , 13 km/h
Temperature: 82°F , 28°C
Dew Point: 37°F , 3°C
Humidity: 20%
Barometer: 30.11 inHg , 1019.6 hPa
Clouds: Overcast
Visibility: 10 miles , 16 km
Cloud details: Overcast 10000 ft
2018/08/14 21:55 KTRK 142155Z 27007KT 240V280 10SM OVC100 28/03 A3011
KTVL - South Lake Tahoe, California, USA
Distance from station: N 45mi, 44km
Updated: 08/14/2018 2:53pm
Light rain, Overcast
Light rain, Overcast
 Wind from calm
Wind: Calm
Temperature: 72°F , 22°C
Dew Point: 52°F , 11°C
Humidity: 50%
Barometer: 30.16 inHg , 1021.3 hPa
Summary: Light rain
Clouds: Overcast
Visibility: 10 miles , 16 km
Cloud details: Overcast 10000 ft
2018/08/14 21:53 KTVL 142153Z AUTO 00000KT 10SM -RA OVC100 22/11 A3016 RMK AO2 LTG DSNT SE AND S RAB34 SLP159 P0000 T02170106 $
 
KBLU - EMIGRANT GAP, California, USA
Distance from station: NNW 31mi, 50km
Updated: 08/14/2018 2:52pm
Clear
Clear
 Wind from varies
Wind: varies 5 mph , 7 km/h
Temperature: 79°F , 26°C
Dew Point: 34°F , 1°C
Humidity: 20%
Barometer: 30.14 inHg , 1020.7 hPa
Clouds: Clear
Visibility: 10 miles , 16 km
2018/08/14 21:52 KBLU 142152Z AUTO VRB04KT 10SM CLR 26/01 A3014 RMK AO2 SLP092 T02560011
KACV - Eureka, California, USA
Distance from station: ENE 387mi, 19km
Updated: 08/14/2018 2:53pm
Overcast
Overcast
 Wind from NW
Wind: NW 7 mph , 11 km/h
Temperature: 61°F , 16°C
Dew Point: 54°F , 12°C
Humidity: 77%
Barometer: 29.95 inHg , 1014.2 hPa
Clouds: Overcast
Visibility: 10 miles , 16 km
Cloud details: Overcast 900 ft
2018/08/14 21:53 KACV 142153Z AUTO 32006KT 10SM OVC009 16/12 A2995 RMK AO2 SLP146 T01560122